Time;durP1;ratioP1;P1;durP2;ratioP2;P2;SDS_P1;SDS_P2;PMS_P1;PMS_P2;Temp;Humidity;BMP_temperature;BMP_pressure;BME280_temperature;BME280_humidity;BME280_pressure;Samples;Min_cycle;Max_cycle;Signal;HPM_P1;HPM_P2
2022/06/25 00:00:58;;;;;;;6.45;5.63;;;;;;;25.41;51.36;100877.59;4958241;28;20756;-83
2022/06/25 00:03:24;;;;;;;7.28;5.80;;;;;;;25.33;51.72;100859.22;4956251;28;20077;-83
2022/06/25 00:05:50;;;;;;;6.75;5.68;;;;;;;25.36;51.34;100874.78;4957968;28;20112;-83
2022/06/25 00:08:15;;;;;;;5.93;5.43;;;;;;;25.41;51.15;100885.59;4955786;28;20044;-84
2022/06/25 00:10:41;;;;;;;5.93;5.43;;;;;;;25.33;51.33;100873.34;4956552;28;20151;-83
2022/06/25 00:13:07;;;;;;;6.03;5.53;;;;;;;25.38;51.17;100875.38;4956968;28;20385;-83
2022/06/25 00:15:32;;;;;;;5.85;5.35;;;;;;;25.38;51.21;100878.84;4959945;28;20034;-83
2022/06/25 00:17:58;;;;;;;6.20;5.60;;;;;;;25.38;51.37;100884.19;4941549;28;20045;-83
2022/06/25 00:20:23;;;;;;;6.85;5.82;;;;;;;25.38;51.18;100897.50;4957078;28;20078;-83
2022/06/25 00:22:49;;;;;;;5.88;5.38;;;;;;;25.40;51.15;100897.28;4955530;28;20038;-83
2022/06/25 00:25:14;;;;;;;6.10;5.50;;;;;;;25.38;51.16;100894.03;4955498;28;20124;-83
2022/06/25 00:27:40;;;;;;;6.28;5.68;;;;;;;25.37;51.51;100897.72;4957466;28;20823;-84
2022/06/25 00:30:08;;;;;;;6.10;5.50;;;;;;;25.39;51.05;100896.47;4958454;28;20257;-83
2022/06/25 00:32:33;;;;;;;5.93;5.35;;;;;;;25.34;51.33;100884.84;4974432;28;20043;-83
2022/06/25 00:34:59;;;;;;;5.45;4.95;;;;;;;25.43;50.95;100897.69;4957476;28;20062;-83
2022/06/25 00:37:24;;;;;;;5.95;5.45;;;;;;;25.39;50.90;100893.81;4958666;28;20104;-84
2022/06/25 00:39:50;;;;;;;5.85;5.35;;;;;;;25.39;51.22;100888.47;4956785;28;20045;-84
2022/06/25 00:42:16;;;;;;;6.22;5.63;;;;;;;25.46;50.85;100891.09;4958421;28;22228;-83
2022/06/25 00:44:42;;;;;;;5.40;4.90;;;;;;;25.34;51.25;100888.31;4971200;28;20042;-83
2022/06/25 00:47:10;;;;;;;6.28;5.68;;;;;;;25.36;51.04;100886.25;4957029;28;20061;-83
2022/06/25 00:49:36;;;;;;;5.63;5.13;;;;;;;25.28;51.35;100886.50;4957801;28;20188;-84
2022/06/25 00:52:09;;;;;;;6.93;6.22;;;;;;;25.32;51.24;100894.91;4957625;28;20046;-83
2022/06/25 00:54:36;;;;;;;6.05;5.20;;;;;;;25.35;51.15;100891.81;4956192;28;20472;-84
2022/06/25 00:57:05;;;;;;;6.47;5.65;;;;;;;25.32;51.39;100890.38;4954708;28;20046;-84
2022/06/25 00:59:37;;;;;;;5.85;5.25;;;;;;;25.35;50.83;100895.28;4953615;28;20065;-84
2022/06/25 01:02:03;;;;;;;6.05;5.45;;;;;;;25.41;51.08;100902.41;4955650;28;20165;-84
2022/06/25 01:04:30;;;;;;;5.50;5.00;;;;;;;25.32;51.04;100902.91;4955946;28;20077;-83
2022/06/25 01:06:55;;;;;;;5.80;5.30;;;;;;;25.38;50.83;100910.03;4956475;28;21726;-83
2022/06/25 01:09:21;;;;;;;5.38;4.88;;;;;;;25.38;50.74;100902.03;4956035;28;20050;-83
2022/06/25 01:11:47;;;;;;;5.80;5.30;;;;;;;25.26;51.08;100910.69;4955787;28;20112;-83
2022/06/25 01:14:14;;;;;;;5.55;5.05;;;;;;;25.30;50.89;100909.22;4939618;28;20500;-83
2022/06/25 01:16:40;;;;;;;5.70;5.18;;;;;;;25.41;50.55;100905.06;4958097;28;20046;-84
2022/06/25 01:19:08;;;;;;;6.00;5.40;;;;;;;25.38;50.96;100912.69;4955402;28;20046;-83
2022/06/25 01:21:33;;;;;;;5.38;4.82;;;;;;;25.32;50.96;100918.88;4974662;28;20050;-83
2022/06/25 01:24:01;;;;;;;5.53;5.03;;;;;;;25.35;51.04;100929.94;4958979;28;20511;-84
2022/06/25 01:26:26;;;;;;;5.50;5.00;;;;;;;25.37;50.70;100927.88;4957798;28;21029;-82
2022/06/25 01:28:52;;;;;;;5.38;4.88;;;;;;;25.33;50.81;100924.00;4958405;28;20253;-82
2022/06/25 01:31:18;;;;;;;5.72;5.22;;;;;;;25.28;50.93;100923.81;4959829;28;20038;-82
2022/06/25 01:33:43;;;;;;;5.10;4.70;;;;;;;25.28;50.71;100924.63;4959359;28;20038;-82
2022/06/25 01:36:08;;;;;;;5.90;5.30;;;;;;;25.43;50.74;100932.34;4959109;28;20973;-82
2022/06/25 01:38:34;;;;;;;5.15;4.68;;;;;;;25.27;50.82;100927.50;4960210;28;20038;-82
2022/06/25 01:41:01;;;;;;;5.35;4.85;;;;;;;25.37;50.65;100932.38;4958195;28;20062;-83
2022/06/25 01:43:27;;;;;;;5.45;4.95;;;;;;;25.30;50.84;100927.06;4962016;28;20084;-82
2022/06/25 01:45:52;;;;;;;5.25;4.65;;;;;;;25.25;50.65;100937.56;4976617;28;20049;-82
2022/06/25 01:48:18;;;;;;;5.30;4.75;;;;;;;25.37;50.43;100930.53;4958557;28;20039;-82
2022/06/25 01:50:43;;;;;;;4.93;4.43;;;;;;;25.32;50.66;100935.69;4980855;28;20786;-82
2022/06/25 01:53:09;;;;;;;5.10;4.60;;;;;;;25.33;50.45;100933.84;4959221;28;20115;-82
2022/06/25 01:55:36;;;;;;;5.57;4.70;;;;;;;25.30;50.73;100937.72;4958220;28;20551;-82
2022/06/25 01:58:04;;;;;;;5.10;4.60;;;;;;;25.26;50.48;100948.00;4960865;28;20093;-83
2022/06/25 02:00:31;;;;;;;5.13;4.63;;;;;;;25.23;50.67;100945.78;4961792;28;20062;-84
2022/06/25 02:03:03;;;;;;;5.07;4.57;;;;;;;25.29;50.76;100946.75;4963042;28;20042;-83
2022/06/25 02:08:17;;;;;;;4.88;4.32;;;;;;;25.24;50.67;100947.41;4961314;28;20874;-83
2022/06/25 02:10:46;;;;;;;5.20;4.70;;;;;;;25.26;50.36;100950.66;4959847;28;20039;-83
2022/06/25 02:13:12;;;;;;;4.38;3.97;;;;;;;25.27;50.53;100951.50;4963828;28;20080;-83
2022/06/25 02:15:38;;;;;;;5.28;4.78;;;;;;;25.18;50.54;100956.25;4963532;28;20038;-83
2022/06/25 02:18:04;;;;;;;6.18;4.38;;;;;;;25.21;50.69;100958.50;4962646;28;21666;-83
2022/06/25 02:20:30;;;;;;;4.35;3.95;;;;;;;25.30;50.54;100961.72;4977734;28;20136;-84
2022/06/25 02:22:55;;;;;;;4.88;4.38;;;;;;;25.27;50.12;100960.31;4962184;28;20591;-83
2022/06/25 02:25:21;;;;;;;5.00;4.50;;;;;;;25.25;50.10;100957.03;4961389;28;21374;-84
2022/06/25 02:27:47;;;;;;;4.60;4.20;;;;;;;25.24;50.24;100954.59;4960610;28;20774;-84
2022/06/25 02:30:13;;;;;;;4.85;4.35;;;;;;;25.25;50.30;100964.22;4964834;28;20097;-84
2022/06/25 02:32:38;;;;;;;4.72;4.30;;;;;;;25.25;50.37;100964.22;4959000;28;20153;-84
2022/06/25 02:35:04;;;;;;;4.65;4.22;;;;;;;25.30;50.28;100962.53;4963400;28;20050;-83
2022/06/25 02:37:30;;;;;;;4.78;4.30;;;;;;;25.20;50.55;100970.19;4978176;28;20053;-84
2022/06/25 02:39:56;;;;;;;5.07;4.60;;;;;;;25.24;50.22;100967.91;4975712;28;20095;-84
2022/06/25 02:42:21;;;;;;;4.78;4.35;;;;;;;25.28;49.96;100969.13;4947014;28;20454;-84
2022/06/25 02:44:47;;;;;;;4.72;4.30;;;;;;;25.22;50.34;100975.31;4961219;28;20047;-83
2022/06/25 02:47:13;;;;;;;4.97;4.35;;;;;;;25.29;49.88;100965.41;4962212;28;20081;-84
2022/06/25 02:50:06;;;;;;;4.50;4.10;;;;;;;25.26;50.16;100982.66;4960086;28;20222;-84
2022/06/25 02:52:31;;;;;;;4.78;4.30;;;;;;;25.18;50.43;100979.44;4973992;28;20039;-83
2022/06/25 02:54:57;;;;;;;4.70;4.30;;;;;;;25.27;49.94;100986.13;4959309;28;20112;-83
2022/06/25 03:00:14;;;;;;;4.50;4.10;;;;;;;25.16;50.42;100987.63;4946613;28;20046;-84
2022/06/25 03:02:42;;;;;;;5.25;4.10;;;;;;;25.15;50.25;100975.34;4959551;28;20039;-83
2022/06/25 03:05:07;;;;;;;5.55;4.03;;;;;;;25.21;50.03;100977.16;4960536;28;20772;-84
2022/06/25 03:07:33;;;;;;;4.90;4.40;;;;;;;25.24;49.83;100976.72;4959466;28;20042;-84
2022/06/25 03:09:59;;;;;;;4.30;3.90;;;;;;;25.22;49.87;100985.97;4948082;28;20085;-84
2022/06/25 03:12:24;;;;;;;4.85;4.28;;;;;;;25.22;50.07;100981.44;4959294;28;20046;-84
2022/06/25 03:14:59;;;;;;;4.90;4.18;;;;;;;25.15;50.15;100982.53;4960319;28;20046;-84
2022/06/25 03:17:25;;;;;;;4.53;4.03;;;;;;;25.17;50.08;100991.94;4959229;28;20054;-83
2022/06/25 03:20:10;;;;;;;4.93;4.43;;;;;;;25.19;49.95;100994.38;4961605;28;20181;-84
2022/06/25 03:22:47;;;;;;;4.25;3.75;;;;;;;25.19;50.00;100991.72;4961144;28;20042;-84
2022/06/25 03:25:13;;;;;;;4.68;4.18;;;;;;;25.16;50.15;100992.97;4958543;28;20124;-84
2022/06/25 03:27:38;;;;;;;4.97;4.13;;;;;;;25.17;50.26;101007.09;4960346;28;20038;-84
2022/06/25 03:30:10;;;;;;;3.80;3.47;;;;;;;25.20;49.93;100996.03;4960065;28;20489;-84
2022/06/25 03:32:38;;;;;;;4.30;3.90;;;;;;;25.23;49.76;100999.06;4975228;28;20046;-84
2022/06/25 03:35:23;;;;;;;4.60;4.20;;;;;;;25.25;49.80;100986.34;4960557;28;20090;-85
2022/06/25 03:38:03;;;;;;;4.47;4.05;;;;;;;25.18;49.96;100984.75;4976462;28;20604;-84
2022/06/25 03:40:28;;;;;;;5.35;4.15;;;;;;;25.18;49.93;100993.56;4960204;28;20034;-84
2022/06/25 03:42:55;;;;;;;5.30;3.97;;;;;;;25.24;49.60;100997.22;4960786;28;20047;-84
2022/06/25 03:45:20;;;;;;;4.07;3.67;;;;;;;25.24;49.52;100999.88;4985696;28;20672;-84
2022/06/25 03:47:50;;;;;;;4.43;4.03;;;;;;;25.19;49.86;101005.03;4958072;28;20047;-84
2022/06/25 03:50:18;;;;;;;4.20;3.80;;;;;;;25.20;49.70;100996.84;4971429;28;20060;-83
2022/06/25 03:52:45;;;;;;;3.60;3.30;;;;;;;25.20;49.84;101006.69;4971886;28;20829;-84
2022/06/25 03:55:12;;;;;;;4.10;3.70;;;;;;;25.26;49.71;101009.31;4957454;28;20058;-83
2022/06/25 03:57:38;;;;;;;3.92;3.60;;;;;;;25.19;49.95;101011.19;4957583;28;20034;-83
2022/06/25 04:00:16;;;;;;;3.92;3.63;;;;;;;25.15;50.07;101015.31;4958879;28;20158;-84
2022/06/25 04:02:50;;;;;;;3.88;3.50;;;;;;;25.09;49.82;101012.66;4941433;28;20544;-84
2022/06/25 04:05:36;;;;;;;3.53;3.22;;;;;;;25.16;49.86;101022.28;4949477;28;20182;-84
2022/06/25 04:08:15;;;;;;;3.70;3.28;;;;;;;25.11;49.77;101010.59;4956486;28;20869;-85
2022/06/25 04:10:42;;;;;;;4.20;3.80;;;;;;;25.05;49.94;101022.91;4940741;28;20138;-84
2022/06/25 04:13:08;;;;;;;3.88;3.58;;;;;;;25.23;49.20;101028.38;4970622;28;20043;-84
2022/06/25 04:15:35;;;;;;;4.03;3.40;;;;;;;25.14;49.65;101024.34;4960423;28;20035;-84
2022/06/25 04:18:04;;;;;;;4.22;3.75;;;;;;;25.13;49.98;101027.19;4957361;28;20047;-84
2022/06/25 04:20:32;;;;;;;5.13;3.65;;;;;;;25.19;49.45;101024.53;4956381;28;20071;-84
2022/06/25 04:22:58;;;;;;;4.15;3.75;;;;;;;25.14;49.79;101024.34;4957199;28;20034;-85
2022/06/25 04:25:24;;;;;;;4.22;3.60;;;;;;;25.15;49.93;101025.16;4957389;28;20043;-84
2022/06/25 04:30:34;;;;;;;3.88;3.58;;;;;;;25.11;49.97;101023.91;4945167;28;20046;-85
2022/06/25 04:33:00;;;;;;;4.00;3.25;;;;;;;25.06;49.82;101024.56;4939157;28;20046;-84
2022/06/25 04:35:32;;;;;;;4.50;3.70;;;;;;;25.13;49.98;101020.00;4957287;28;20081;-83
2022/06/25 04:38:01;;;;;;;3.70;3.38;;;;;;;25.20;49.28;101030.66;4957520;28;20736;-84
2022/06/25 04:40:29;;;;;;;3.88;3.47;;;;;;;25.10;49.48;101027.59;4956017;28;20047;-84
2022/06/25 04:42:55;;;;;;;5.32;3.50;;;;;;;25.17;49.47;101028.44;4958874;28;20746;-84
2022/06/25 04:45:21;;;;;;;4.10;3.70;;;;;;;25.12;49.84;101034.38;4958514;28;20169;-84
2022/06/25 04:48:03;;;;;;;3.60;3.20;;;;;;;25.08;49.50;101035.81;4957227;28;20042;-84
2022/06/25 04:50:51;;;;;;;3.90;3.50;;;;;;;25.07;49.83;101041.34;4958317;28;20038;-85
2022/06/25 04:53:18;;;;;;;3.70;3.40;;;;;;;24.98;49.57;101027.44;4955186;28;20173;-84
2022/06/25 04:55:44;;;;;;;3.83;3.42;;;;;;;25.11;49.80;101039.91;4959941;28;20100;-84
2022/06/25 04:58:10;;;;;;;4.10;3.30;;;;;;;25.06;49.65;101043.19;4960314;28;20042;-84
2022/06/25 05:00:54;;;;;;;3.83;3.50;;;;;;;25.10;49.55;101049.75;4962171;28;20168;-84
2022/06/25 05:03:20;;;;;;;3.95;3.30;;;;;;;25.13;49.78;101049.31;4948881;28;21121;-85
2022/06/25 05:06:06;;;;;;;3.58;3.28;;;;;;;25.15;49.69;101055.28;4978032;28;20056;-84
2022/06/25 05:08:33;;;;;;;3.15;2.85;;;;;;;25.05;49.74;101051.41;4972674;28;20046;-84
2022/06/25 05:11:02;;;;;;;3.55;3.25;;;;;;;25.07;49.77;101058.16;4962836;28;20126;-85
2022/06/25 05:13:29;;;;;;;3.30;3.00;;;;;;;25.12;49.67;101054.88;4946352;28;20164;-84
2022/06/25 05:16:00;;;;;;;3.67;3.38;;;;;;;25.08;49.68;101053.66;4945237;28;20047;-82
2022/06/25 05:18:26;;;;;;;3.40;3.10;;;;;;;25.10;49.87;101051.59;4959884;28;20050;-82
2022/06/25 05:20:51;;;;;;;3.58;3.28;;;;;;;25.11;49.80;101062.03;4963370;28;20050;-84
2022/06/25 05:23:17;;;;;;;4.15;3.72;;;;;;;25.06;49.66;101063.69;4958203;28;20050;-83
2022/06/25 05:25:44;;;;;;;3.47;3.17;;;;;;;25.08;49.60;101066.97;4982869;28;20043;-84
2022/06/25 05:28:10;;;;;;;3.75;3.45;;;;;;;24.99;49.83;101061.88;4944515;28;20133;-83
2022/06/25 05:30:36;;;;;;;3.35;3.05;;;;;;;25.08;49.72;101062.47;4961513;28;20042;-83
2022/06/25 05:33:02;;;;;;;3.30;3.00;;;;;;;25.12;49.66;101074.34;4962917;28;20042;-84
2022/06/25 05:35:27;;;;;;;3.58;3.28;;;;;;;25.05;49.70;101064.72;4958782;28;20086;-83
2022/06/25 05:37:53;;;;;;;3.47;3.17;;;;;;;25.12;49.36;101069.00;4960219;28;21331;-84
2022/06/25 05:40:19;;;;;;;5.20;3.72;;;;;;;25.12;49.55;101066.34;4942409;28;20042;-84
2022/06/25 05:42:45;;;;;;;3.53;3.17;;;;;;;25.09;49.56;101076.59;4964705;28;22116;-84
2022/06/25 05:45:11;;;;;;;3.53;3.22;;;;;;;25.11;49.50;101080.69;4958128;28;20157;-84
2022/06/25 05:47:36;;;;;;;3.65;3.13;;;;;;;25.05;49.65;101086.03;4959686;28;20041;-84
2022/06/25 05:50:03;;;;;;;3.70;3.40;;;;;;;25.06;49.78;101082.34;4961429;28;20046;-84
2022/06/25 05:52:29;;;;;;;4.07;3.63;;;;;;;25.13;49.53;101083.97;4961640;28;20131;-84
2022/06/25 05:54:54;;;;;;;3.50;3.20;;;;;;;25.06;49.74;101085.03;4960688;28;22301;-84
2022/06/25 05:57:20;;;;;;;4.13;3.30;;;;;;;25.10;49.73;101089.72;4961690;28;20089;-83
2022/06/25 05:59:45;;;;;;;3.70;3.30;;;;;;;25.14;49.50;101092.81;4962371;28;20166;-83
2022/06/25 06:02:11;;;;;;;3.22;2.92;;;;;;;25.01;49.83;101093.63;4960877;28;20173;-84
2022/06/25 06:04:37;;;;;;;3.40;3.10;;;;;;;25.12;49.79;101105.50;4959799;28;20063;-84
2022/06/25 06:07:02;;;;;;;3.63;3.30;;;;;;;25.11;49.66;101103.84;4962830;28;20129;-84
2022/06/25 06:09:28;;;;;;;3.90;3.50;;;;;;;25.05;49.65;101112.69;4942067;28;20053;-84
2022/06/25 06:11:55;;;;;;;3.20;2.90;;;;;;;25.11;49.54;101114.50;4961366;28;21188;-83
2022/06/25 06:14:22;;;;;;;4.35;3.03;;;;;;;25.13;49.37;101115.13;4960113;28;20039;-83
2022/06/25 06:16:47;;;;;;;3.40;3.10;;;;;;;25.14;49.45;101117.59;4959394;28;20050;-84
2022/06/25 06:19:13;;;;;;;3.42;3.13;;;;;;;25.07;49.51;101108.78;4961268;28;21349;-84
2022/06/25 06:21:38;;;;;;;3.33;3.03;;;;;;;25.13;49.42;101120.44;4959941;28;20046;-83
2022/06/25 06:24:04;;;;;;;2.97;2.75;;;;;;;25.20;49.24;101123.94;4959259;28;20058;-84
2022/06/25 06:26:30;;;;;;;3.70;3.35;;;;;;;25.15;49.62;101121.91;4959875;28;20452;-84
2022/06/25 06:28:55;;;;;;;3.30;3.00;;;;;;;25.12;49.55;101132.97;4960588;28;20066;-84
2022/06/25 06:31:21;;;;;;;3.30;3.00;;;;;;;25.14;49.53;101130.13;4958799;28;20051;-84
2022/06/25 06:33:46;;;;;;;4.07;3.10;;;;;;;25.18;49.58;101136.66;4959201;28;20201;-84
2022/06/25 06:36:12;;;;;;;3.25;2.97;;;;;;;25.19;49.38;101133.78;4958378;28;20039;-84
2022/06/25 06:38:38;;;;;;;3.30;3.00;;;;;;;25.18;49.42;101136.66;4958777;28;20857;-84
2022/06/25 06:41:04;;;;;;;3.40;3.10;;;;;;;25.13;49.51;101131.94;4957069;28;20588;-84
2022/06/25 06:43:30;;;;;;;2.90;2.70;;;;;;;25.16;49.32;101144.88;4962511;28;20129;-84
2022/06/25 06:45:55;;;;;;;4.93;3.17;;;;;;;25.15;49.57;101145.88;4959452;28;20062;-85
2022/06/25 06:48:21;;;;;;;3.13;2.83;;;;;;;25.25;49.23;101146.28;4958443;28;20042;-84
2022/06/25 06:50:46;;;;;;;3.42;3.13;;;;;;;25.19;49.24;101149.78;4959761;28;20035;-84
2022/06/25 06:53:12;;;;;;;3.50;2.83;;;;;;;25.31;49.11;101157.94;4957879;28;20054;-83
2022/06/25 06:55:37;;;;;;;2.97;2.67;;;;;;;25.29;49.13;101157.31;4957847;28;20509;-83
2022/06/25 06:58:03;;;;;;;3.20;2.90;;;;;;;25.29;48.80;101152.81;4957421;28;20678;-84
2022/06/25 07:00:31;;;;;;;3.20;2.90;;;;;;;25.31;48.90;101157.94;4960785;28;20133;-84
2022/06/25 07:02:56;;;;;;;3.08;2.72;;;;;;;25.32;49.12;101151.59;4958896;28;20077;-84
2022/06/25 07:05:21;;;;;;;3.78;3.00;;;;;;;25.35;49.10;101155.69;4957982;28;20042;-84
2022/06/25 07:07:47;;;;;;;3.50;3.15;;;;;;;25.32;48.87;101154.28;4958317;28;20547;-84
2022/06/25 07:10:14;;;;;;;3.08;2.78;;;;;;;25.39;48.78;101156.91;4963783;28;20054;-84
2022/06/25 07:12:39;;;;;;;3.30;3.00;;;;;;;25.44;49.04;101155.25;4963584;28;21308;-86
2022/06/25 07:15:05;;;;;;;3.20;2.90;;;;;;;25.41;49.17;101150.34;4959563;28;20046;-86
2022/06/25 07:17:31;;;;;;;3.00;2.70;;;;;;;25.42;48.81;101153.81;4963345;28;20540;-85
2022/06/25 07:19:57;;;;;;;2.80;2.60;;;;;;;25.45;48.94;101154.22;4961133;28;20047;-86
2022/06/25 07:22:28;;;;;;;3.28;2.97;;;;;;;25.46;48.86;101152.38;4963678;28;20234;-86
2022/06/25 07:24:53;;;;;;;2.63;2.42;;;;;;;25.48;48.84;101159.13;4961122;28;20049;-85
2022/06/25 07:27:19;;;;;;;3.40;3.10;;;;;;;25.47;49.23;101159.34;4964254;28;20072;-84
2022/06/25 07:29:44;;;;;;;4.25;3.20;;;;;;;25.51;49.07;101165.91;4964076;28;20057;-84
2022/06/25 07:32:10;;;;;;;2.90;2.70;;;;;;;25.50;48.89;101161.63;4963297;28;20115;-84
2022/06/25 07:34:37;;;;;;;3.42;3.13;;;;;;;25.52;48.59;101164.88;4962427;28;21252;-84
2022/06/25 07:37:04;;;;;;;3.25;2.90;;;;;;;25.55;48.73;101157.28;4962525;28;20053;-87
2022/06/25 07:39:29;;;;;;;3.08;2.60;;;;;;;25.52;48.76;101167.56;4962978;28;20145;-86
2022/06/25 07:41:55;;;;;;;2.85;2.63;;;;;;;25.50;48.77;101172.28;4965946;28;20073;-85
2022/06/25 07:44:21;;;;;;;3.00;2.70;;;;;;;25.60;48.55;101159.31;4967051;28;20065;-85
2022/06/25 07:46:47;;;;;;;3.20;2.90;;;;;;;25.56;48.42;101156.25;4968326;28;20042;-87
2022/06/25 07:49:13;;;;;;;3.30;2.97;;;;;;;25.50;48.90;101165.09;4963375;28;20038;-87
2022/06/25 07:52:13;;;;;;;4.50;3.25;;;;;;;25.63;48.56;101171.41;4963472;28;20116;-86
2022/06/25 07:54:31;;;;;;;3.28;2.97;;;;;;;25.67;48.64;101161.94;4961890;28;20062;-86
2022/06/25 07:56:58;;;;;;;3.03;2.75;;;;;;;25.63;48.75;101176.72;4963884;28;20058;-86
2022/06/25 07:59:24;;;;;;;2.67;2.47;;;;;;;25.66;48.51;101163.78;4960366;28;20058;-85
2022/06/25 08:01:50;;;;;;;3.20;2.90;;;;;;;25.63;48.86;101166.88;4964290;28;20476;-86
2022/06/25 08:04:15;;;;;;;2.80;2.60;;;;;;;25.64;48.68;101171.19;4958832;28;21468;-85
2022/06/25 08:06:41;;;;;;;2.92;2.70;;;;;;;25.64;48.58;101171.19;4943228;28;20053;-85
2022/06/25 08:09:08;;;;;;;4.35;2.83;;;;;;;25.67;48.77;101169.94;4962280;28;20069;-85
2022/06/25 08:11:34;;;;;;;3.60;2.70;;;;;;;25.71;48.78;101169.38;4960658;28;20046;-85
2022/06/25 08:13:59;;;;;;;3.10;2.50;;;;;;;25.74;48.43;101174.28;4962379;28;20049;-86
2022/06/25 08:16:25;;;;;;;2.90;2.65;;;;;;;25.77;48.37;101175.69;4964026;28;20046;-86
2022/06/25 08:18:52;;;;;;;3.05;2.75;;;;;;;25.74;48.46;101176.94;4961127;28;20081;-87
2022/06/25 08:21:18;;;;;;;3.78;2.95;;;;;;;25.76;48.63;101179.41;4962617;28;22108;-86
2022/06/25 08:23:43;;;;;;;2.95;2.65;;;;;;;25.76;48.57;101180.22;4962378;28;20050;-86
2022/06/25 08:26:09;;;;;;;3.25;2.75;;;;;;;25.72;48.74;101183.53;4963367;28;20046;-86
2022/06/25 08:28:34;;;;;;;3.05;2.60;;;;;;;25.72;48.82;101176.34;4960036;28;20110;-86
2022/06/25 08:31:00;;;;;;;3.00;2.42;;;;;;;25.70;48.64;101193.59;4965019;28;20117;-86
2022/06/25 08:33:25;;;;;;;2.92;2.67;;;;;;;25.76;48.49;101192.72;4966324;28;20666;-86
2022/06/25 08:35:51;;;;;;;3.22;2.92;;;;;;;25.73;48.52;101179.81;4967159;28;20054;-85
2022/06/25 08:38:17;;;;;;;3.00;2.70;;;;;;;25.74;48.60;101190.28;4967217;28;20436;-86
2022/06/25 08:40:42;;;;;;;3.33;3.03;;;;;;;25.74;48.44;101184.13;4965973;28;20564;-87
2022/06/25 08:43:08;;;;;;;3.83;2.60;;;;;;;25.70;48.75;101182.91;4966131;28;20053;-86
2022/06/25 08:45:34;;;;;;;5.78;2.70;;;;;;;25.73;48.44;101187.81;4968304;28;20053;-85
2022/06/25 08:48:01;;;;;;;4.30;2.70;;;;;;;25.78;48.26;101188.81;4970562;28;20050;-86
2022/06/25 08:50:27;;;;;;;3.08;2.78;;;;;;;25.74;48.37;101171.59;4966317;28;22100;-85
2022/06/25 08:52:54;;;;;;;2.95;2.30;;;;;;;25.83;47.89;101193.53;4969022;28;20168;-85
2022/06/25 08:55:20;;;;;;;2.92;2.60;;;;;;;25.81;48.14;101195.59;4969693;28;20097;-85
2022/06/25 08:57:47;;;;;;;3.53;2.60;;;;;;;25.70;48.00;101188.25;4972017;28;20529;-87
2022/06/25 09:00:13;;;;;;;2.95;2.65;;;;;;;25.77;47.88;101197.84;4965854;28;20065;-86
2022/06/25 09:02:39;;;;;;;3.55;2.70;;;;;;;25.77;48.09;101195.19;4966343;28;20097;-85
2022/06/25 09:05:08;;;;;;;3.83;2.90;;;;;;;25.74;47.76;101194.78;4966596;28;20039;-85
2022/06/25 09:07:35;;;;;;;3.65;2.75;;;;;;;25.78;47.73;101204.81;4967838;28;20062;-86
2022/06/25 09:10:00;;;;;;;4.20;2.85;;;;;;;25.84;48.17;101195.16;4972585;28;21433;-86
2022/06/25 09:12:26;;;;;;;3.47;2.83;;;;;;;25.81;48.05;101195.59;4970859;28;20043;-85
2022/06/25 09:14:51;;;;;;;5.68;3.00;;;;;;;25.80;47.97;101199.28;4970175;28;20051;-85
2022/06/25 09:17:17;;;;;;;4.15;2.70;;;;;;;25.76;48.22;101198.88;4970844;28;21109;-85
2022/06/25 09:19:44;;;;;;;2.50;2.30;;;;;;;25.83;47.83;101199.66;4966642;28;20045;-85
2022/06/25 09:22:23;;;;;;;2.97;2.67;;;;;;;25.77;47.70;101187.19;4964549;28;20046;-85
2022/06/25 09:24:58;;;;;;;3.55;2.50;;;;;;;25.76;47.99;101201.56;4971445;28;21005;-84
2022/06/25 09:27:40;;;;;;;3.38;2.80;;;;;;;25.77;47.95;101200.53;4963466;28;20190;-85
2022/06/25 09:30:13;;;;;;;3.28;2.65;;;;;;;25.74;48.12;101200.94;4965783;28;20706;-85
2022/06/25 09:32:56;;;;;;;3.25;2.88;;;;;;;25.72;48.04;101197.69;4966705;28;20042;-85
2022/06/25 09:35:31;;;;;;;3.88;2.70;;;;;;;25.84;47.80;101195.16;4962551;28;20531;-86
2022/06/25 09:38:14;;;;;;;3.50;2.65;;;;;;;25.81;48.27;101199.06;4964623;28;21225;-84
2022/06/25 09:40:50;;;;;;;3.38;2.60;;;;;;;25.82;47.95;101208.72;4968923;28;20037;-85
2022/06/25 09:43:21;;;;;;;3.47;2.83;;;;;;;25.82;48.18;101194.56;4963318;28;20456;-85
2022/06/25 09:45:51;;;;;;;2.70;2.42;;;;;;;25.83;47.81;101206.84;4965436;28;20061;-84
2022/06/25 09:48:26;;;;;;;3.05;2.72;;;;;;;25.84;48.20;101208.50;4962029;28;20050;-86
2022/06/25 09:51:26;;;;;;;4.15;2.75;;;;;;;25.84;47.74;101209.31;4964517;28;20068;-85
2022/06/25 09:53:54;;;;;;;3.72;2.47;;;;;;;25.83;48.00;101205.00;4967826;28;21180;-87
2022/06/25 09:56:25;;;;;;;2.78;2.42;;;;;;;25.86;48.00;101209.94;4969888;28;21019;-86
2022/06/25 09:58:53;;;;;;;3.35;2.75;;;;;;;25.79;48.35;101202.97;4972677;28;20108;-87
2022/06/25 10:01:21;;;;;;;2.85;2.50;;;;;;;25.84;48.16;101206.66;4970640;28;20065;-87
2022/06/25 10:03:47;;;;;;;4.47;2.90;;;;;;;25.87;48.31;101205.44;4976552;28;20396;-87
2022/06/25 10:06:18;;;;;;;3.08;2.70;;;;;;;25.84;48.06;101203.97;4974430;28;20031;-87
2022/06/25 10:08:49;;;;;;;4.30;2.60;;;;;;;25.81;48.06;101199.06;4970092;28;20046;-87
2022/06/25 10:11:18;;;;;;;3.83;2.90;;;;;;;25.85;48.13;101208.31;4985319;28;21239;-87
2022/06/25 10:13:46;;;;;;;3.63;2.70;;;;;;;25.84;48.08;101201.31;4970381;28;20400;-87
2022/06/25 10:16:11;;;;;;;3.33;2.33;;;;;;;25.87;47.86;101208.09;4969504;28;20043;-86
2022/06/25 10:18:38;;;;;;;3.70;2.53;;;;;;;25.86;48.19;101215.28;4971142;28;20034;-87
2022/06/25 10:21:04;;;;;;;2.92;2.63;;;;;;;25.84;48.10;101200.50;4977248;28;20077;-87
2022/06/25 10:23:30;;;;;;;3.28;2.60;;;;;;;25.87;48.06;101206.25;4976042;28;20120;-86
2022/06/25 10:25:55;;;;;;;5.35;2.80;;;;;;;25.86;48.21;101206.47;4972246;28;20046;-87
2022/06/25 10:28:26;;;;;;;2.85;2.50;;;;;;;25.83;48.12;101206.84;4971111;28;20050;-86
2022/06/25 10:30:56;;;;;;;4.22;2.83;;;;;;;25.84;48.22;101205.81;4970642;28;20491;-85
2022/06/25 10:33:27;;;;;;;5.10;2.75;;;;;;;25.80;48.24;101200.09;4969504;28;21224;-86
2022/06/25 10:35:56;;;;;;;2.67;2.47;;;;;;;25.89;48.08;101203.38;4966653;28;20042;-86
2022/06/25 10:38:24;;;;;;;4.63;2.53;;;;;;;25.84;48.24;101195.97;4968928;28;20120;-88
2022/06/25 10:40:58;;;;;;;3.20;2.60;;;;;;;25.90;48.05;101199.66;4951754;28;20574;-87
2022/06/25 10:43:37;;;;;;;3.33;2.38;;;;;;;25.86;48.22;101198.47;4973816;28;21120;-87
2022/06/25 10:46:22;;;;;;;2.50;2.13;;;;;;;25.89;48.01;101201.50;4973408;28;20057;-87
2022/06/25 10:48:55;;;;;;;3.20;2.60;;;;;;;25.89;47.93;101188.19;4958370;28;20026;-88
2022/06/25 10:51:47;;;;;;;2.92;2.42;;;;;;;25.88;48.23;101204.41;4974174;28;20049;-88
2022/06/25 10:54:21;;;;;;;5.00;2.97;;;;;;;25.89;47.94;101209.53;4966518;28;20049;-87
2022/06/25 10:56:56;;;;;;;3.22;2.53;;;;;;;25.86;48.14;101201.94;4987923;28;20050;-88
2022/06/25 10:59:34;;;;;;;4.32;2.72;;;;;;;25.89;48.13;101198.84;4995704;28;20149;-89
2022/06/25 11:02:02;;;;;;;2.67;2.35;;;;;;;25.89;47.91;101198.03;4975816;28;20114;-88
2022/06/25 11:04:29;;;;;;;2.70;2.50;;;;;;;25.89;48.06;101200.69;4976910;28;20160;-88
2022/06/25 11:07:17;;;;;;;2.80;2.47;;;;;;;25.87;47.95;101189.41;4974643;28;20050;-88
2022/06/25 11:10:01;;;;;;;3.17;2.53;;;;;;;25.92;47.70;101194.94;4976574;28;20076;-88
2022/06/25 11:12:29;;;;;;;3.65;2.47;;;;;;;25.88;48.29;101186.53;4975228;28;20058;-88
2022/06/25 11:15:06;;;;;;;2.72;2.40;;;;;;;25.90;47.91;101197.00;4968523;28;20129;-90
2022/06/25 11:17:32;;;;;;;2.92;2.28;;;;;;;25.91;48.17;101190.63;4969319;28;20493;-89
2022/06/25 11:20:09;;;;;;;3.08;2.40;;;;;;;25.85;47.94;101194.13;4963155;28;20111;-89
2022/06/25 11:22:47;;;;;;;2.90;2.40;;;;;;;25.90;48.29;101200.47;4975965;28;20050;-89
2022/06/25 11:30:42;;;;;;;3.28;2.28;;;;;;;25.85;48.05;101188.78;4978621;28;20050;-88
2022/06/25 11:33:09;;;;;;;2.88;2.60;;;;;;;25.83;47.91;101196.19;4976312;28;20057;-88
2022/06/25 11:35:40;;;;;;;2.67;2.47;;;;;;;25.86;47.97;101190.44;4971305;28;20038;-88
2022/06/25 11:38:17;;;;;;;2.55;2.30;;;;;;;25.90;48.01;101197.00;4965248;28;20161;-87
2022/06/25 11:40:43;;;;;;;3.03;2.40;;;;;;;25.87;48.10;101205.44;4965215;28;20035;-86
2022/06/25 11:43:12;;;;;;;3.17;2.53;;;;;;;25.85;48.24;101199.47;4961789;28;20667;-85